Time,TemperatureF,DewpointF,PressureIn,WindDirection,WindDirectionDegrees,WindSpeedMPH,WindSpeedGustMPH,Humidity,HourlyPrecipIn,Conditions,Clouds,dailyrainin,SoftwareType,DateUTC
2013-01-26 00:02:00,29.9,24.8,30.23,West,273,2.0,2.0,81,0.00,,,0.00,Wunderground v.1.15,2013-01-26 06:02:00,
2013-01-26 00:07:00,30.1,25.0,30.23,West,277,2.0,2.0,81,0.00,,,0.00,Wunderground v.1.15,2013-01-26 06:07:00,
2013-01-26 00:12:00,29.5,24.4,30.23,West,281,2.0,2.0,81,0.00,,,0.00,Wunderground v.1.15,2013-01-26 06:12:00,
2013-01-26 00:17:00,29.5,24.4,30.23,WNW,283,1.0,2.0,81,0.00,,,0.00,Wunderground v.1.15,2013-01-26 06:17:00,
2013-01-26 00:23:00,29.7,24.6,30.23,West,264,2.0,2.0,81,0.00,,,0.00,Wunderground v.1.15,2013-01-26 06:23:00,
2013-01-26 00:28:00,30.0,24.6,30.23,West,281,2.0,2.0,80,0.00,,,0.00,Wunderground v.1.15,2013-01-26 06:28:00,
2013-01-26 00:33:00,30.1,24.4,30.24,WNW,285,2.0,2.0,79,0.00,,,0.00,Wunderground v.1.15,2013-01-26 06:33:00,
2013-01-26 00:38:00,29.8,24.1,30.24,West,271,2.0,2.0,79,0.00,,,0.00,Wunderground v.1.15,2013-01-26 06:38:00,
2013-01-26 00:44:00,29.8,24.4,30.24,West,280,2.0,3.0,80,0.00,,,0.00,Wunderground v.1.15,2013-01-26 06:44:00,
2013-01-26 00:49:00,30.1,24.4,30.24,WNW,288,2.0,3.0,79,0.00,,,0.00,Wunderground v.1.15,2013-01-26 06:49:00,
2013-01-26 00:54:00,30.3,24.6,30.24,WNW,295,2.0,3.0,79,0.00,,,0.00,Wunderground v.1.15,2013-01-26 06:54:00,
2013-01-26 00:59:00,30.9,24.8,30.24,WNW,290,3.0,5.0,78,0.00,,,0.00,Wunderground v.1.15,2013-01-26 06:59:00,
2013-01-26 01:05:00,31.4,25.0,30.24,WNW,288,4.0,4.0,77,0.00,,,0.00,Wunderground v.1.15,2013-01-26 07:05:00,
2013-01-26 01:11:00,31.2,24.8,30.25,WNW,284,3.0,3.0,77,0.00,,,0.00,Wunderground v.1.15,2013-01-26 07:11:00,
2013-01-26 01:16:00,30.6,24.2,30.24,West,278,2.0,3.0,77,0.00,,,0.00,Wunderground v.1.15,2013-01-26 07:16:00,
2013-01-26 01:22:00,30.4,24.4,30.24,West,280,2.0,2.0,78,0.00,,,0.00,Wunderground v.1.15,2013-01-26 07:22:00,
2013-01-26 01:27:00,30.0,24.0,30.25,WNW,282,1.0,2.0,78,0.00,,,0.00,Wunderground v.1.15,2013-01-26 07:27:00,
2013-01-26 01:32:00,30.0,24.0,30.25,WNW,284,0.0,1.0,78,0.00,,,0.00,Wunderground v.1.15,2013-01-26 07:32:00,
2013-01-26 01:38:00,29.7,23.7,30.25,WNW,285,0.0,1.0,78,0.00,,,0.00,Wunderground v.1.15,2013-01-26 07:38:00,
2013-01-26 01:43:00,29.3,23.6,30.25,West,281,0.0,0.0,79,0.00,,,0.00,Wunderground v.1.15,2013-01-26 07:43:00,
2013-01-26 01:48:00,29.4,23.7,30.25,West,274,0.0,1.0,79,0.00,,,0.00,Wunderground v.1.15,2013-01-26 07:48:00,
2013-01-26 01:53:00,29.5,23.8,30.25,WNW,283,0.0,1.0,79,0.00,,,0.00,Wunderground v.1.15,2013-01-26 07:53:00,
2013-01-26 01:59:00,28.8,22.8,30.25,WNW,284,0.0,1.0,78,0.00,,,0.00,Wunderground v.1.15,2013-01-26 07:59:00,
2013-01-26 02:04:00,29.0,23.6,30.25,WNW,295,1.0,2.0,80,0.00,,,0.00,Wunderground v.1.15,2013-01-26 08:04:00,
2013-01-26 02:10:00,29.3,23.9,30.25,WNW,294,2.0,2.0,80,0.00,,,0.00,Wunderground v.1.15,2013-01-26 08:10:00,
2013-01-26 02:15:00,29.6,24.2,30.25,NW,304,2.0,3.0,80,0.00,,,0.00,Wunderground v.1.15,2013-01-26 08:15:00,
2013-01-26 02:20:00,30.1,24.1,30.26,NW,305,2.0,2.0,78,0.00,,,0.00,Wunderground v.1.15,2013-01-26 08:20:00,
2013-01-26 02:26:00,30.2,24.2,30.26,NW,304,2.0,3.0,78,0.00,,,0.00,Wunderground v.1.15,2013-01-26 08:26:00,
2013-01-26 02:31:00,30.6,24.6,30.26,NW,316,3.0,5.0,78,0.00,,,0.00,Wunderground v.1.15,2013-01-26 08:31:00,
2013-01-26 02:36:00,30.8,24.4,30.26,NW,319,3.0,5.0,77,0.00,,,0.00,Wunderground v.1.15,2013-01-26 08:36:00,
2013-01-26 02:41:00,31.4,24.7,30.26,NW,321,4.0,6.0,76,0.00,,,0.00,Wunderground v.1.15,2013-01-26 08:41:00,
2013-01-26 02:46:00,31.7,25.0,30.26,NW,321,5.0,6.0,76,0.00,,,0.00,Wunderground v.1.15,2013-01-26 08:46:00,
2013-01-26 02:52:00,31.7,24.7,30.26,NNW,338,5.0,9.0,75,0.00,,,0.00,Wunderground v.1.15,2013-01-26 08:52:00,
2013-01-26 02:57:00,31.3,24.6,30.26,NW,316,5.0,9.0,76,0.00,,,0.00,Wunderground v.1.15,2013-01-26 08:57:00,
2013-01-26 03:03:00,31.2,24.8,30.27,NNW,329,4.0,8.0,77,0.00,,,0.00,Wunderground v.1.15,2013-01-26 09:03:00,
2013-01-26 03:08:00,30.9,24.5,30.26,NNW,328,5.0,8.0,77,0.00,,,0.00,Wunderground v.1.15,2013-01-26 09:08:00,
2013-01-26 03:14:00,30.7,24.7,30.26,NW,312,4.0,6.0,78,0.00,,,0.00,Wunderground v.1.15,2013-01-26 09:14:00,
2013-01-26 03:19:00,30.7,24.7,30.26,NW,311,4.0,7.0,78,0.00,,,0.00,Wunderground v.1.15,2013-01-26 09:19:00,
2013-01-26 03:24:00,30.6,24.6,30.26,NW,312,4.0,4.0,78,0.00,,,0.00,Wunderground v.1.15,2013-01-26 09:24:00,
2013-01-26 03:29:00,30.7,24.7,30.26,NW,316,4.0,5.0,78,0.00,,,0.00,Wunderground v.1.15,2013-01-26 09:29:00,
2013-01-26 03:35:00,30.4,24.4,30.27,NW,316,5.0,6.0,78,0.00,,,0.00,Wunderground v.1.15,2013-01-26 09:35:00,
2013-01-26 03:40:00,30.5,24.5,30.27,NW,318,5.0,5.0,78,0.00,,,0.00,Wunderground v.1.15,2013-01-26 09:40:00,
2013-01-26 03:45:00,30.3,24.3,30.27,NW,323,5.0,8.0,78,0.00,,,0.00,Wunderground v.1.15,2013-01-26 09:45:00,
2013-01-26 03:50:00,30.1,24.4,30.27,NW,323,5.0,6.0,79,0.00,,,0.00,Wunderground v.1.15,2013-01-26 09:50:00,
2013-01-26 03:56:00,29.8,24.1,30.27,NW,315,5.0,7.0,79,0.00,,,0.00,Wunderground v.1.15,2013-01-26 09:56:00,
2013-01-26 04:01:00,29.7,24.3,30.27,NW,316,5.0,5.0,80,0.00,,,0.00,Wunderground v.1.15,2013-01-26 10:01:00,
2013-01-26 04:07:00,29.4,24.0,30.27,NW,322,5.0,6.0,80,0.00,,,0.00,Wunderground v.1.15,2013-01-26 10:07:00,
2013-01-26 04:12:00,29.1,24.0,30.27,NNW,329,5.0,5.0,81,0.00,,,0.00,Wunderground v.1.15,2013-01-26 10:12:00,
2013-01-26 04:17:00,28.8,23.7,30.27,NW,316,4.0,5.0,81,0.00,,,0.00,Wunderground v.1.15,2013-01-26 10:17:00,
2013-01-26 04:22:00,28.3,23.2,30.27,NW,312,3.0,4.0,81,0.00,,,0.00,Wunderground v.1.15,2013-01-26 10:22:00,
2013-01-26 04:28:00,28.4,23.6,30.27,NW,317,3.0,4.0,82,0.00,,,0.00,Wunderground v.1.15,2013-01-26 10:28:00,
2013-01-26 04:33:00,28.0,23.2,30.27,NW,326,3.0,4.0,82,0.00,,,0.00,Wunderground v.1.15,2013-01-26 10:33:00,
2013-01-26 04:38:00,27.8,23.0,30.28,NNW,338,2.0,5.0,82,0.00,,,0.00,Wunderground v.1.15,2013-01-26 10:38:00,
2013-01-26 04:43:00,27.5,22.7,30.28,NW,324,2.0,2.0,82,0.00,,,0.00,Wunderground v.1.15,2013-01-26 10:43:00,
2013-01-26 04:49:00,27.2,22.7,30.28,NW,325,1.0,3.0,83,0.00,,,0.00,Wunderground v.1.15,2013-01-26 10:49:00,
2013-01-26 04:54:00,27.2,22.7,30.28,NNW,338,1.0,3.0,83,0.00,,,0.00,Wunderground v.1.15,2013-01-26 10:54:00,
2013-01-26 04:59:00,27.3,22.8,30.28,NNW,334,2.0,5.0,83,0.00,,,0.00,Wunderground v.1.15,2013-01-26 10:59:00,
2013-01-26 05:05:00,27.0,22.2,30.28,NW,326,3.0,4.0,82,0.00,,,0.00,Wunderground v.1.15,2013-01-26 11:05:00,
2013-01-26 05:10:00,27.2,21.5,30.28,NW,316,4.0,5.0,79,0.00,,,0.00,Wunderground v.1.15,2013-01-26 11:10:00,
2013-01-26 05:15:00,27.3,21.0,30.29,North,352,6.0,8.0,77,0.00,,,0.00,Wunderground v.1.15,2013-01-26 11:15:00,
2013-01-26 05:21:00,27.2,20.6,30.29,NW,324,7.0,7.0,76,0.00,,,0.00,Wunderground v.1.15,2013-01-26 11:21:00,
2013-01-26 05:26:00,26.9,20.3,30.30,NNW,345,6.0,7.0,76,0.00,,,0.00,Wunderground v.1.15,2013-01-26 11:26:00,
2013-01-26 05:31:00,26.7,20.1,30.30,North,350,6.0,9.0,76,0.00,,,0.00,Wunderground v.1.15,2013-01-26 11:31:00,
2013-01-26 05:36:00,26.7,20.1,30.31,North,9,7.0,10.0,76,0.00,,,0.00,Wunderground v.1.15,2013-01-26 11:36:00,
2013-01-26 05:41:00,26.5,20.0,30.31,NNE,22,6.0,8.0,76,0.00,,,0.00,Wunderground v.1.15,2013-01-26 11:41:00,
2013-01-26 05:46:00,26.3,20.1,30.31,North,349,6.0,8.0,77,0.00,,,0.00,Wunderground v.1.15,2013-01-26 11:46:00,
2013-01-26 05:52:00,26.0,20.1,30.31,NNE,22,6.0,7.0,78,0.00,,,0.00,Wunderground v.1.15,2013-01-26 11:52:00,
2013-01-26 05:57:00,25.7,20.1,30.31,NNE,16,7.0,9.0,79,0.00,,,0.00,Wunderground v.1.15,2013-01-26 11:57:00,
2013-01-26 06:03:00,25.3,19.7,30.32,North,4,6.0,11.0,79,0.00,,,0.00,Wunderground v.1.15,2013-01-26 12:03:00,
2013-01-26 06:08:00,25.1,19.2,30.32,NNW,343,6.0,11.0,78,0.00,,,0.00,Wunderground v.1.15,2013-01-26 12:08:00,
2013-01-26 06:13:00,24.8,18.6,30.33,NNW,327,6.0,6.0,77,0.00,,,0.00,Wunderground v.1.15,2013-01-26 12:13:00,
2013-01-26 06:19:00,24.7,18.5,30.33,North,354,4.0,6.0,77,0.00,,,0.00,Wunderground v.1.15,2013-01-26 12:19:00,
2013-01-26 06:24:00,24.5,18.3,30.33,NNE,32,4.0,4.0,77,0.00,,,0.00,Wunderground v.1.15,2013-01-26 12:24:00,
2013-01-26 06:29:00,24.3,18.1,30.33,North,6,5.0,8.0,77,0.00,,,0.00,Wunderground v.1.15,2013-01-26 12:29:00,
2013-01-26 06:34:00,24.2,18.0,30.33,North,11,5.0,6.0,77,0.00,,,0.00,Wunderground v.1.15,2013-01-26 12:34:00,
2013-01-26 06:40:00,24.0,17.5,30.33,North,359,6.0,6.0,76,0.00,,,0.00,Wunderground v.1.15,2013-01-26 12:40:00,
2013-01-26 06:45:00,23.9,17.4,30.33,North,8,6.0,8.0,76,0.00,,,0.00,Wunderground v.1.15,2013-01-26 12:45:00,
2013-01-26 06:50:00,23.9,17.4,30.34,NNE,16,6.0,9.0,76,0.00,,,0.00,Wunderground v.1.15,2013-01-26 12:50:00,
2013-01-26 06:56:00,23.6,17.1,30.34,NE,34,6.0,9.0,76,0.00,,,0.00,Wunderground v.1.15,2013-01-26 12:56:00,
2013-01-26 07:01:00,23.5,17.0,30.34,NNE,33,5.0,5.0,76,0.00,,,0.00,Wunderground v.1.15,2013-01-26 13:01:00,
2013-01-26 07:06:00,23.4,16.9,30.35,NNE,18,5.0,8.0,76,0.00,,,0.00,Wunderground v.1.15,2013-01-26 13:06:00,
2013-01-26 07:11:00,23.3,16.9,30.35,NNE,28,4.0,5.0,76,0.00,,,0.00,Wunderground v.1.15,2013-01-26 13:11:00,
2013-01-26 07:17:00,23.1,16.7,30.35,North,6,3.0,5.0,76,0.00,,,0.00,Wunderground v.1.15,2013-01-26 13:17:00,
2013-01-26 07:22:00,23.1,16.7,30.36,North,356,3.0,3.0,76,0.00,,,0.00,Wunderground v.1.15,2013-01-26 13:22:00,
2013-01-26 07:27:00,23.0,16.6,30.36,North,6,2.0,6.0,76,0.00,,,0.00,Wunderground v.1.15,2013-01-26 13:27:00,
2013-01-26 07:32:00,22.9,16.5,30.36,North,356,2.0,5.0,76,0.00,,,0.00,Wunderground v.1.15,2013-01-26 13:32:00,
2013-01-26 07:37:00,22.9,16.5,30.36,North,11,3.0,5.0,76,0.00,,,0.00,Wunderground v.1.15,2013-01-26 13:37:00,
2013-01-26 07:42:00,23.0,16.6,30.36,North,359,3.0,5.0,76,0.00,,,0.00,Wunderground v.1.15,2013-01-26 13:42:00,
2013-01-26 07:48:00,23.3,16.9,30.37,North,349,3.0,6.0,76,0.00,,,0.00,Wunderground v.1.15,2013-01-26 13:48:00,
2013-01-26 07:53:00,23.5,16.7,30.37,NNE,15,3.0,6.0,75,0.00,,,0.00,Wunderground v.1.15,2013-01-26 13:53:00,
2013-01-26 07:58:00,23.6,16.8,30.38,NNW,332,4.0,6.0,75,0.00,,,0.00,Wunderground v.1.15,2013-01-26 13:58:00,
2013-01-26 08:04:00,23.8,17.0,30.38,North,354,4.0,5.0,75,0.00,,,0.00,Wunderground v.1.15,2013-01-26 14:04:00,
2013-01-26 08:09:00,24.0,17.2,30.38,North,1,4.0,6.0,75,0.00,,,0.00,Wunderground v.1.15,2013-01-26 14:09:00,
2013-01-26 08:14:00,24.2,17.1,30.38,NNE,25,3.0,6.0,74,0.00,,,0.00,Wunderground v.1.15,2013-01-26 14:14:00,
2013-01-26 08:20:00,24.3,17.5,30.38,NNE,15,4.0,8.0,75,0.00,,,0.00,Wunderground v.1.15,2013-01-26 14:20:00,
2013-01-26 08:25:00,24.5,17.7,30.38,North,4,5.0,8.0,75,0.00,,,0.00,Wunderground v.1.15,2013-01-26 14:25:00,
2013-01-26 08:31:00,24.6,17.5,30.38,North,358,5.0,7.0,74,0.00,,,0.00,Wunderground v.1.15,2013-01-26 14:31:00,
2013-01-26 08:36:00,24.7,17.6,30.38,NNE,16,5.0,7.0,74,0.00,,,0.00,Wunderground v.1.15,2013-01-26 14:36:00,
2013-01-26 08:41:00,24.9,17.8,30.39,NE,34,5.0,6.0,74,0.00,,,0.00,Wunderground v.1.15,2013-01-26 14:41:00,
2013-01-26 08:46:00,24.8,18.0,30.39,NE,37,5.0,8.0,75,0.00,,,0.00,Wunderground v.1.15,2013-01-26 14:46:00,
2013-01-26 08:51:00,24.7,17.6,30.39,NNE,25,6.0,6.0,74,0.00,,,0.00,Wunderground v.1.15,2013-01-26 14:51:00,
2013-01-26 08:57:00,24.8,18.3,30.39,NE,41,5.0,6.0,76,0.00,,,0.00,Wunderground v.1.15,2013-01-26 14:57:00,
2013-01-26 09:02:00,24.9,17.8,30.39,NNE,20,4.0,4.0,74,0.00,,,0.00,Wunderground v.1.15,2013-01-26 15:02:00,
2013-01-26 09:08:00,25.0,18.2,30.40,NE,41,3.0,5.0,75,0.00,,,0.00,Wunderground v.1.15,2013-01-26 15:08:00,
2013-01-26 09:13:00,25.1,18.0,30.40,NNE,33,2.0,3.0,74,0.00,,,0.00,Wunderground v.1.15,2013-01-26 15:13:00,
2013-01-26 09:18:00,25.3,18.5,30.41,NNW,338,2.0,4.0,75,0.00,,,0.00,Wunderground v.1.15,2013-01-26 15:18:00,
2013-01-26 09:23:00,25.4,18.3,30.41,NW,323,2.0,3.0,74,0.00,,,0.00,Wunderground v.1.15,2013-01-26 15:23:00,
2013-01-26 09:29:00,25.5,18.4,30.41,North,349,2.0,4.0,74,0.00,,,0.00,Wunderground v.1.15,2013-01-26 15:29:00,
2013-01-26 09:34:00,25.7,18.6,30.41,NNE,18,1.0,2.0,74,0.00,,,0.00,Wunderground v.1.15,2013-01-26 15:34:00,
2013-01-26 09:39:00,26.3,19.5,30.41,NW,316,1.0,4.0,75,0.00,,,0.00,Wunderground v.1.15,2013-01-26 15:39:00,
2013-01-26 09:45:00,26.5,19.6,30.41,NNE,26,2.0,4.0,75,0.00,,,0.00,Wunderground v.1.15,2013-01-26 15:45:00,
2013-01-26 09:50:00,26.7,19.2,30.41,NNW,345,2.0,2.0,73,0.00,,,0.00,Wunderground v.1.15,2013-01-26 15:50:00,
2013-01-26 09:56:00,26.8,19.3,30.42,NW,309,2.0,3.0,73,0.00,,,0.00,Wunderground v.1.15,2013-01-26 15:56:00,
2013-01-26 10:01:00,27.1,19.6,30.42,NNW,338,2.0,2.0,73,0.00,,,0.00,Wunderground v.1.15,2013-01-26 16:01:00,
2013-01-26 10:07:00,27.2,19.7,30.42,NNW,341,2.0,5.0,73,0.00,,,0.00,Wunderground v.1.15,2013-01-26 16:07:00,
2013-01-26 10:12:00,27.4,19.9,30.41,NNW,338,3.0,3.0,73,0.00,,,0.00,Wunderground v.1.15,2013-01-26 16:12:00,
2013-01-26 10:17:00,27.6,20.1,30.41,North,5,3.0,5.0,73,0.00,,,0.00,Wunderground v.1.15,2013-01-26 16:17:00,
2013-01-26 10:22:00,28.0,20.5,30.42,ENE,57,2.0,4.0,73,0.00,,,0.00,Wunderground v.1.15,2013-01-26 16:22:00,
2013-01-26 10:27:00,28.7,21.5,30.41,NNW,329,1.0,4.0,74,0.00,,,0.00,Wunderground v.1.15,2013-01-26 16:27:00,
2013-01-26 10:33:00,29.2,21.0,30.42,NNE,27,0.0,3.0,71,0.00,,,0.00,Wunderground v.1.15,2013-01-26 16:33:00,
2013-01-26 10:38:00,29.3,21.1,30.42,NE,55,2.0,5.0,71,0.00,,,0.00,Wunderground v.1.15,2013-01-26 16:38:00,
2013-01-26 10:43:00,29.1,20.5,30.42,East,86,3.0,4.0,70,0.00,,,0.00,Wunderground v.1.15,2013-01-26 16:43:00,
2013-01-26 10:48:00,29.4,21.2,30.41,NE,52,3.0,4.0,71,0.00,,,0.00,Wunderground v.1.15,2013-01-26 16:48:00,
2013-01-26 10:53:00,29.5,20.9,30.41,NE,49,3.0,6.0,70,0.00,,,0.00,Wunderground v.1.15,2013-01-26 16:53:00,
2013-01-26 10:59:00,29.5,20.9,30.42,NE,46,2.0,6.0,70,0.00,,,0.00,Wunderground v.1.15,2013-01-26 16:59:00,
2013-01-26 11:04:00,29.7,21.1,30.42,ENE,67,1.0,2.0,70,0.00,,,0.00,Wunderground v.1.15,2013-01-26 17:04:00,
2013-01-26 11:10:00,30.0,21.1,30.42,WNW,293,2.0,2.0,69,0.00,,,0.00,Wunderground v.1.15,2013-01-26 17:10:00,
2013-01-26 11:15:00,30.3,21.3,30.42,ESE,105,2.0,2.0,69,0.00,,,0.00,Wunderground v.1.15,2013-01-26 17:15:00,
2013-01-26 11:20:00,30.6,20.9,30.42,NNE,26,2.0,6.0,67,0.00,,,0.00,Wunderground v.1.15,2013-01-26 17:20:00,
2013-01-26 11:25:00,30.6,21.3,30.41,NNW,343,3.0,6.0,68,0.00,,,0.00,Wunderground v.1.15,2013-01-26 17:25:00,
2013-01-26 11:30:00,30.8,21.1,30.41,NW,304,2.0,2.0,67,0.00,,,0.00,Wunderground v.1.15,2013-01-26 17:30:00,
2013-01-26 11:36:00,31.4,22.4,30.41,ENE,72,2.0,5.0,69,0.00,,,0.00,Wunderground v.1.15,2013-01-26 17:36:00,
2013-01-26 11:41:00,31.5,21.4,30.41,NE,49,3.0,3.0,66,0.00,,,0.00,Wunderground v.1.15,2013-01-26 17:41:00,
2013-01-26 11:46:00,31.4,21.0,30.41,NE,49,2.0,4.0,65,0.00,,,0.00,Wunderground v.1.15,2013-01-26 17:46:00,
2013-01-26 11:51:00,31.8,21.0,30.41,NW,322,2.0,5.0,64,0.00,,,0.00,Wunderground v.1.15,2013-01-26 17:51:00,
2013-01-26 11:57:00,31.8,21.0,30.41,NE,37,4.0,6.0,64,0.00,,,0.00,Wunderground v.1.15,2013-01-26 17:57:00,
2013-01-26 12:02:00,31.8,20.6,30.41,NNE,12,4.0,4.0,63,0.00,,,0.00,Wunderground v.1.15,2013-01-26 18:02:00,
2013-01-26 12:08:00,32.1,21.3,30.41,NE,46,2.0,4.0,64,0.00,,,0.00,Wunderground v.1.15,2013-01-26 18:08:00,
2013-01-26 12:13:00,32.5,21.3,30.41,NE,53,1.0,4.0,63,0.00,,,0.00,Wunderground v.1.15,2013-01-26 18:13:00,
2013-01-26 12:18:00,32.5,20.9,30.41,ENE,59,3.0,7.0,62,0.00,,,0.00,Wunderground v.1.15,2013-01-26 18:18:00,
2013-01-26 12:23:00,32.6,21.4,30.40,NE,49,3.0,7.0,63,0.00,,,0.00,Wunderground v.1.15,2013-01-26 18:23:00,
2013-01-26 12:28:00,32.9,21.7,30.40,East,82,3.0,7.0,63,0.00,,,0.00,Wunderground v.1.15,2013-01-26 18:28:00,
2013-01-26 12:34:00,33.3,21.7,30.40,NE,51,2.0,5.0,62,0.00,,,0.00,Wunderground v.1.15,2013-01-26 18:34:00,
2013-01-26 12:39:00,33.5,21.9,30.40,NNW,335,3.0,5.0,62,0.00,,,0.00,Wunderground v.1.15,2013-01-26 18:39:00,
2013-01-26 12:44:00,33.1,21.9,30.40,North,1,4.0,7.0,63,0.00,,,0.00,Wunderground v.1.15,2013-01-26 18:44:00,
2013-01-26 12:49:00,33.3,21.7,30.40,NW,309,2.0,7.0,62,0.00,,,0.00,Wunderground v.1.15,2013-01-26 18:49:00,
2013-01-26 12:54:00,33.9,22.2,30.40,NW,323,1.0,2.0,62,0.00,,,0.00,Wunderground v.1.15,2013-01-26 18:54:00,
2013-01-26 13:00:00,34.1,22.0,30.40,WNW,302,2.0,3.0,61,0.00,,,0.00,Wunderground v.1.15,2013-01-26 19:00:00,
2013-01-26 13:06:00,33.9,21.5,30.39,West,281,2.0,4.0,60,0.00,,,0.00,Wunderground v.1.15,2013-01-26 19:06:00,
2013-01-26 13:11:00,34.1,22.0,30.39,NNE,30,2.0,7.0,61,0.00,,,0.00,Wunderground v.1.15,2013-01-26 19:11:00,
2013-01-26 13:16:00,34.3,22.2,30.39,North,11,3.0,7.0,61,0.00,,,0.00,Wunderground v.1.15,2013-01-26 19:16:00,
2013-01-26 13:21:00,34.5,22.0,30.39,ENE,64,2.0,2.0,60,0.00,,,0.00,Wunderground v.1.15,2013-01-26 19:21:00,
2013-01-26 13:26:00,34.9,22.0,30.39,ENE,58,1.0,2.0,59,0.00,,,0.00,Wunderground v.1.15,2013-01-26 19:26:00,
2013-01-26 13:32:00,35.2,21.9,30.39,NE,45,1.0,4.0,58,0.00,,,0.00,Wunderground v.1.15,2013-01-26 19:32:00,
2013-01-26 13:37:00,35.1,22.2,30.38,NNW,340,3.0,5.0,59,0.00,,,0.00,Wunderground v.1.15,2013-01-26 19:37:00,
2013-01-26 13:42:00,35.2,22.3,30.38,WNW,300,3.0,3.0,59,0.00,,,0.00,Wunderground v.1.15,2013-01-26 19:42:00,
2013-01-26 13:47:00,35.2,21.9,30.38,NNW,329,2.0,3.0,58,0.00,,,0.00,Wunderground v.1.15,2013-01-26 19:47:00,
2013-01-26 13:52:00,35.3,22.4,30.38,NW,319,3.0,5.0,59,0.00,,,0.00,Wunderground v.1.15,2013-01-26 19:52:00,
2013-01-26 13:57:00,35.6,22.7,30.38,NNW,347,2.0,6.0,59,0.00,,,0.00,Wunderground v.1.15,2013-01-26 19:57:00,
2013-01-26 14:03:00,35.5,22.2,30.37,ENE,72,3.0,5.0,58,0.00,,,0.00,Wunderground v.1.15,2013-01-26 20:03:00,
2013-01-26 14:08:00,35.6,21.9,30.37,North,11,1.0,5.0,57,0.00,,,0.00,Wunderground v.1.15,2013-01-26 20:08:00,
2013-01-26 14:14:00,35.7,21.9,30.37,WNW,290,1.0,3.0,57,0.00,,,0.00,Wunderground v.1.15,2013-01-26 20:14:00,
2013-01-26 14:19:00,35.8,22.5,30.37,ENE,71,2.0,5.0,58,0.00,,,0.00,Wunderground v.1.15,2013-01-26 20:19:00,
2013-01-26 14:25:00,35.6,21.9,30.37,ENE,57,4.0,5.0,57,0.00,,,0.00,Wunderground v.1.15,2013-01-26 20:25:00,
2013-01-26 14:30:00,35.8,22.5,30.37,NE,41,3.0,3.0,58,0.00,,,0.00,Wunderground v.1.15,2013-01-26 20:30:00,
2013-01-26 14:36:00,35.9,22.1,30.37,North,5,2.0,3.0,57,0.00,,,0.00,Wunderground v.1.15,2013-01-26 20:36:00,
2013-01-26 14:41:00,36.0,22.2,30.37,NE,34,2.0,2.0,57,0.00,,,0.00,Wunderground v.1.15,2013-01-26 20:41:00,
2013-01-26 14:46:00,36.1,21.5,30.36,NNE,17,2.0,4.0,55,0.00,,,0.00,Wunderground v.1.15,2013-01-26 20:46:00,
2013-01-26 14:52:00,36.1,22.7,30.37,NNW,340,2.0,3.0,58,0.00,,,0.00,Wunderground v.1.15,2013-01-26 20:52:00,
2013-01-26 14:58:00,36.0,21.4,30.37,NW,323,2.0,3.0,55,0.00,,,0.00,Wunderground v.1.15,2013-01-26 20:58:00,
2013-01-26 15:03:00,36.2,21.6,30.37,North,360,1.0,5.0,55,0.00,,,0.00,Wunderground v.1.15,2013-01-26 21:03:00,
2013-01-26 15:09:00,36.1,21.9,30.37,NNE,23,3.0,5.0,56,0.00,,,0.00,Wunderground v.1.15,2013-01-26 21:09:00,
2013-01-26 15:14:00,36.1,21.9,30.37,North,5,3.0,3.0,56,0.00,,,0.00,Wunderground v.1.15,2013-01-26 21:14:00,
2013-01-26 15:19:00,36.4,22.2,30.36,ENE,74,2.0,3.0,56,0.00,,,0.00,Wunderground v.1.15,2013-01-26 21:19:00,
2013-01-26 15:24:00,36.4,22.2,30.36,NNE,24,2.0,3.0,56,0.00,,,0.00,Wunderground v.1.15,2013-01-26 21:24:00,
2013-01-26 15:30:00,36.3,22.5,30.36,North,7,2.0,2.0,57,0.00,,,0.00,Wunderground v.1.15,2013-01-26 21:30:00,
2013-01-26 15:35:00,36.6,22.4,30.36,East,95,1.0,2.0,56,0.00,,,0.00,Wunderground v.1.15,2013-01-26 21:35:00,
2013-01-26 15:40:00,36.9,22.7,30.36,ENE,60,1.0,6.0,56,0.00,,,0.00,Wunderground v.1.15,2013-01-26 21:40:00,
2013-01-26 15:45:00,36.5,21.8,30.36,NE,51,2.0,6.0,55,0.00,,,0.00,Wunderground v.1.15,2013-01-26 21:45:00,
2013-01-26 15:51:00,36.4,22.6,30.36,ENE,68,2.0,3.0,57,0.00,,,0.00,Wunderground v.1.15,2013-01-26 21:51:00,
2013-01-26 15:56:00,36.4,22.2,30.36,NE,51,1.0,3.0,56,0.00,,,0.00,Wunderground v.1.15,2013-01-26 21:56:00,
2013-01-26 16:02:00,36.2,22.0,30.36,East,89,2.0,3.0,56,0.00,,,0.00,Wunderground v.1.15,2013-01-26 22:02:00,
2013-01-26 16:07:00,36.1,21.9,30.37,ENE,76,2.0,3.0,56,0.00,,,0.00,Wunderground v.1.15,2013-01-26 22:07:00,
2013-01-26 16:12:00,35.9,22.1,30.37,ENE,78,1.0,3.0,57,0.00,,,0.00,Wunderground v.1.15,2013-01-26 22:12:00,
2013-01-26 16:17:00,35.6,22.3,30.37,ENE,60,3.0,5.0,58,0.00,,,0.00,Wunderground v.1.15,2013-01-26 22:17:00,
2013-01-26 16:23:00,35.3,22.0,30.36,ENE,62,4.0,6.0,58,0.00,,,0.00,Wunderground v.1.15,2013-01-26 22:23:00,
2013-01-26 16:28:00,35.1,21.8,30.36,ENE,66,4.0,6.0,58,0.00,,,0.00,Wunderground v.1.15,2013-01-26 22:28:00,
2013-01-26 16:33:00,35.0,21.7,30.37,East,79,4.0,4.0,58,0.00,,,0.00,Wunderground v.1.15,2013-01-26 22:33:00,
2013-01-26 16:38:00,34.9,22.4,30.37,ENE,60,3.0,4.0,60,0.00,,,0.00,Wunderground v.1.15,2013-01-26 22:38:00,
2013-01-26 16:44:00,34.7,22.6,30.37,ENE,62,1.0,2.0,61,0.00,,,0.00,Wunderground v.1.15,2013-01-26 22:44:00,
2013-01-26 16:49:00,34.4,22.3,30.37,ENE,62,1.0,2.0,61,0.00,,,0.00,Wunderground v.1.15,2013-01-26 22:49:00,
2013-01-26 16:54:00,33.9,21.9,30.37,ENE,65,1.0,2.0,61,0.00,,,0.00,Wunderground v.1.15,2013-01-26 22:54:00,
2013-01-26 16:59:00,33.5,22.2,30.38,ENE,65,1.0,2.0,63,0.00,,,0.00,Wunderground v.1.15,2013-01-26 22:59:00,
2013-01-26 17:05:00,32.9,22.4,30.37,ESE,111,0.0,1.0,65,0.00,,,0.00,Wunderground v.1.15,2013-01-26 23:05:00,
2013-01-26 17:10:00,32.5,22.4,30.37,East,90,0.0,0.0,66,0.00,,,0.00,Wunderground v.1.15,2013-01-26 23:10:00,
2013-01-26 17:16:00,32.2,22.1,30.37,East,91,0.0,0.0,66,0.00,,,0.00,Wunderground v.1.15,2013-01-26 23:16:00,
2013-01-26 17:21:00,31.6,22.2,30.37,East,89,0.0,0.0,68,0.00,,,0.00,Wunderground v.1.15,2013-01-26 23:21:00,
2013-01-26 17:26:00,31.0,22.0,30.38,East,89,0.0,0.0,69,0.00,,,0.00,Wunderground v.1.15,2013-01-26 23:26:00,
2013-01-26 17:31:00,30.6,21.6,30.38,East,89,0.0,0.0,69,0.00,,,0.00,Wunderground v.1.15,2013-01-26 23:31:00,
2013-01-26 17:37:00,30.3,21.7,30.39,East,89,0.0,0.0,70,0.00,,,0.00,Wunderground v.1.15,2013-01-26 23:37:00,
2013-01-26 17:42:00,30.0,21.4,30.39,East,89,0.0,0.0,70,0.00,,,0.00,Wunderground v.1.15,2013-01-26 23:42:00,
2013-01-26 17:47:00,29.8,21.5,30.39,East,89,0.0,0.0,71,0.00,,,0.00,Wunderground v.1.15,2013-01-26 23:47:00,
2013-01-26 17:52:00,29.3,21.4,30.39,East,89,0.0,0.0,72,0.00,,,0.00,Wunderground v.1.15,2013-01-26 23:52:00,
2013-01-26 17:58:00,29.3,22.0,30.38,East,89,0.0,0.0,74,0.00,,,0.00,Wunderground v.1.15,2013-01-26 23:58:00,
2013-01-26 18:03:00,29.4,22.1,30.39,East,89,0.0,0.0,74,0.00,,,0.00,Wunderground v.1.15,2013-01-27 00:03:00,
2013-01-26 18:09:00,29.3,22.0,30.39,East,89,0.0,0.0,74,0.00,,,0.00,Wunderground v.1.15,2013-01-27 00:09:00,
2013-01-26 18:14:00,29.3,22.4,30.39,East,89,0.0,0.0,75,0.00,,,0.00,Wunderground v.1.15,2013-01-27 00:14:00,
2013-01-26 18:19:00,29.1,22.2,30.39,East,89,0.0,0.0,75,0.00,,,0.00,Wunderground v.1.15,2013-01-27 00:19:00,
2013-01-26 18:24:00,28.6,21.7,30.39,East,89,0.0,0.0,75,0.00,,,0.00,Wunderground v.1.15,2013-01-27 00:24:00,
2013-01-26 18:30:00,28.2,21.9,30.39,East,89,0.0,0.0,77,0.00,,,0.00,Wunderground v.1.15,2013-01-27 00:30:00,
2013-01-26 18:35:00,28.1,22.1,30.39,East,89,0.0,0.0,78,0.00,,,0.00,Wunderground v.1.15,2013-01-27 00:35:00,
2013-01-26 18:40:00,27.8,21.8,30.40,East,89,0.0,0.0,78,0.00,,,0.00,Wunderground v.1.15,2013-01-27 00:40:00,
2013-01-26 18:46:00,27.3,21.6,30.39,East,89,0.0,0.0,79,0.00,,,0.00,Wunderground v.1.15,2013-01-27 00:46:00,
2013-01-26 18:51:00,27.2,22.1,30.40,East,89,0.0,0.0,81,0.00,,,0.00,Wunderground v.1.15,2013-01-27 00:51:00,
2013-01-26 18:57:00,27.4,22.0,30.40,East,89,0.0,0.0,80,0.00,,,0.00,Wunderground v.1.15,2013-01-27 00:57:00,
2013-01-26 19:02:00,27.4,22.0,30.40,East,89,0.0,0.0,80,0.00,,,0.00,Wunderground v.1.15,2013-01-27 01:02:00,
2013-01-26 19:07:00,27.2,22.1,30.40,East,89,0.0,0.0,81,0.00,,,0.00,Wunderground v.1.15,2013-01-27 01:07:00,
2013-01-26 19:13:00,27.1,22.3,30.40,East,89,0.0,0.0,82,0.00,,,0.00,Wunderground v.1.15,2013-01-27 01:13:00,
2013-01-26 19:18:00,27.1,22.6,30.40,East,89,0.0,0.0,83,0.00,,,0.00,Wunderground v.1.15,2013-01-27 01:18:00,
2013-01-26 19:23:00,27.1,22.6,30.41,East,83,0.0,0.0,83,0.00,,,0.00,Wunderground v.1.15,2013-01-27 01:23:00,
2013-01-26 19:28:00,27.1,22.9,30.40,East,84,0.0,0.0,84,0.00,,,0.00,Wunderground v.1.15,2013-01-27 01:28:00,
2013-01-26 19:34:00,26.9,22.7,30.41,East,83,0.0,0.0,84,0.00,,,0.00,Wunderground v.1.15,2013-01-27 01:34:00,
2013-01-26 19:39:00,26.9,22.7,30.40,East,83,0.0,0.0,84,0.00,,,0.00,Wunderground v.1.15,2013-01-27 01:39:00,
2013-01-26 19:44:00,26.6,22.4,30.40,East,83,0.0,0.0,84,0.00,,,0.00,Wunderground v.1.15,2013-01-27 01:44:00,
2013-01-26 19:50:00,26.6,22.7,30.40,East,79,0.0,0.0,85,0.00,,,0.00,Wunderground v.1.15,2013-01-27 01:50:00,
2013-01-26 19:55:00,26.5,22.6,30.40,East,79,0.0,0.0,85,0.00,,,0.00,Wunderground v.1.15,2013-01-27 01:55:00,
2013-01-26 20:00:00,26.3,22.7,30.40,East,84,0.0,0.0,86,0.00,,,0.00,Wunderground v.1.15,2013-01-27 02:00:00,
2013-01-26 20:06:00,26.3,22.4,30.40,East,86,0.0,0.0,85,0.00,,,0.00,Wunderground v.1.15,2013-01-27 02:06:00,
2013-01-26 20:11:00,26.3,22.4,30.40,East,85,0.0,0.0,85,0.00,,,0.00,Wunderground v.1.15,2013-01-27 02:11:00,
2013-01-26 20:16:00,26.5,22.6,30.40,East,86,0.0,0.0,85,0.00,,,0.00,Wunderground v.1.15,2013-01-27 02:16:00,
2013-01-26 20:21:00,26.5,22.6,30.40,East,86,0.0,0.0,85,0.00,,,0.00,Wunderground v.1.15,2013-01-27 02:21:00,
2013-01-26 20:27:00,26.2,22.6,30.40,East,86,0.0,0.0,86,0.00,,,0.00,Wunderground v.1.15,2013-01-27 02:27:00,
2013-01-26 20:32:00,26.1,22.5,30.39,ESE,108,0.0,0.0,86,0.00,,,0.00,Wunderground v.1.15,2013-01-27 02:32:00,
2013-01-26 20:38:00,26.1,22.8,30.39,ENE,77,0.0,0.0,87,0.00,,,0.00,Wunderground v.1.15,2013-01-27 02:38:00,
2013-01-26 20:43:00,26.1,22.5,30.38,ENE,74,0.0,1.0,86,0.00,,,0.00,Wunderground v.1.15,2013-01-27 02:43:00,
2013-01-26 20:48:00,26.0,22.7,30.39,ENE,77,0.0,1.0,87,0.00,,,0.00,Wunderground v.1.15,2013-01-27 02:48:00,
2013-01-26 20:53:00,25.9,22.3,30.39,East,82,0.0,0.0,86,0.00,,,0.00,Wunderground v.1.15,2013-01-27 02:53:00,
2013-01-26 20:59:00,26.3,22.7,30.39,NE,47,0.0,1.0,86,0.00,,,0.00,Wunderground v.1.15,2013-01-27 02:59:00,
2013-01-26 21:05:00,26.5,22.3,30.39,East,87,0.0,0.0,84,0.00,,,0.00,Wunderground v.1.15,2013-01-27 03:05:00,
2013-01-26 21:10:00,26.7,22.2,30.40,East,88,0.0,0.0,83,0.00,,,0.00,Wunderground v.1.15,2013-01-27 03:10:00,
2013-01-26 21:16:00,26.9,22.1,30.40,East,87,0.0,0.0,82,0.00,,,0.00,Wunderground v.1.15,2013-01-27 03:16:00,
2013-01-26 21:21:00,26.8,21.8,30.40,East,87,0.0,0.0,81,0.00,,,0.00,Wunderground v.1.15,2013-01-27 03:21:00,
2013-01-26 21:26:00,26.6,21.3,30.40,East,88,0.0,0.0,80,0.00,,,0.00,Wunderground v.1.15,2013-01-27 03:26:00,
2013-01-26 21:31:00,26.5,21.2,30.40,East,88,0.0,0.0,80,0.00,,,0.00,Wunderground v.1.15,2013-01-27 03:31:00,
2013-01-26 21:37:00,26.8,21.5,30.40,East,88,0.0,0.0,80,0.00,,,0.00,Wunderground v.1.15,2013-01-27 03:37:00,
2013-01-26 21:42:00,27.3,21.9,30.40,East,88,0.0,0.0,80,0.00,,,0.00,Wunderground v.1.15,2013-01-27 03:42:00,
2013-01-26 21:47:00,27.3,21.9,30.40,East,88,0.0,0.0,80,0.00,,,0.00,Wunderground v.1.15,2013-01-27 03:47:00,
2013-01-26 21:53:00,26.8,21.5,30.40,East,88,0.0,0.0,80,0.00,,,0.00,Wunderground v.1.15,2013-01-27 03:53:00,
2013-01-26 21:58:00,26.5,21.2,30.40,East,87,0.0,0.0,80,0.00,,,0.00,Wunderground v.1.15,2013-01-27 03:58:00,
2013-01-26 22:03:00,26.1,21.4,30.40,East,88,0.0,0.0,82,0.00,,,0.00,Wunderground v.1.15,2013-01-27 04:03:00,
2013-01-26 22:09:00,25.8,21.3,30.40,East,88,0.0,0.0,83,0.00,,,0.00,Wunderground v.1.15,2013-01-27 04:09:00,
2013-01-26 22:14:00,25.6,21.7,30.40,East,88,0.0,0.0,85,0.00,,,0.00,Wunderground v.1.15,2013-01-27 04:14:00,
2013-01-26 22:19:00,25.3,21.4,30.40,East,88,0.0,0.0,85,0.00,,,0.00,Wunderground v.1.15,2013-01-27 04:19:00,
2013-01-26 22:24:00,25.0,21.4,30.40,East,87,0.0,0.0,86,0.00,,,0.00,Wunderground v.1.15,2013-01-27 04:24:00,
2013-01-26 22:29:00,25.2,21.9,30.40,East,88,0.0,1.0,87,0.00,,,0.00,Wunderground v.1.15,2013-01-27 04:29:00,
2013-01-26 22:34:00,25.3,21.7,30.40,East,87,0.0,0.0,86,0.00,,,0.00,Wunderground v.1.15,2013-01-27 04:34:00,
2013-01-26 22:40:00,25.7,21.8,30.40,ENE,76,0.0,0.0,85,0.00,,,0.00,Wunderground v.1.15,2013-01-27 04:40:00,
2013-01-26 22:45:00,25.9,21.7,30.39,ENE,76,0.0,0.0,84,0.00,,,0.00,Wunderground v.1.15,2013-01-27 04:45:00,
2013-01-26 22:50:00,25.8,21.6,30.40,ENE,77,0.0,0.0,84,0.00,,,0.00,Wunderground v.1.15,2013-01-27 04:50:00,
2013-01-26 22:55:00,25.4,21.2,30.40,ENE,77,0.0,0.0,84,0.00,,,0.00,Wunderground v.1.15,2013-01-27 04:55:00,
2013-01-26 23:01:00,25.2,21.3,30.40,ENE,77,0.0,0.0,85,0.00,,,0.00,Wunderground v.1.15,2013-01-27 05:01:00,
2013-01-26 23:02:00,25.1,21.2,30.40,ENE,77,0.0,0.0,85,0.00,,,0.00,Wunderground v.1.15,2013-01-27 05:02:00,
2013-01-26 23:04:00,25.0,21.1,30.40,ENE,77,0.0,0.0,85,0.00,,,0.00,Wunderground v.1.15,2013-01-27 05:04:00,
2013-01-26 23:05:00,25.0,21.1,30.40,ENE,77,0.0,0.0,85,0.00,,,0.00,Wunderground v.1.15,2013-01-27 05:05:00,
2013-01-26 23:11:00,24.4,20.5,30.40,ENE,76,0.0,0.0,85,0.00,,,0.00,Wunderground v.1.15,2013-01-27 05:11:00,
2013-01-26 23:16:00,24.0,20.4,30.40,ENE,77,0.0,0.0,86,0.00,,,0.00,Wunderground v.1.15,2013-01-27 05:16:00,
2013-01-26 23:21:00,23.9,20.6,30.40,ENE,77,0.0,0.0,87,0.00,,,0.00,Wunderground v.1.15,2013-01-27 05:21:00,
2013-01-26 23:26:00,24.3,21.3,30.39,ENE,77,0.0,1.0,88,0.00,,,0.00,Wunderground v.1.15,2013-01-27 05:26:00,
2013-01-26 23:32:00,24.6,21.6,30.39,ENE,67,1.0,1.0,88,0.00,,,0.00,Wunderground v.1.15,2013-01-27 05:32:00,
2013-01-26 23:37:00,24.9,21.8,30.39,ENE,69,1.0,1.0,88,0.00,,,0.00,Wunderground v.1.15,2013-01-27 05:37:00,
2013-01-26 23:42:00,25.2,21.9,30.38,East,100,0.0,0.0,87,0.00,,,0.00,Wunderground v.1.15,2013-01-27 05:42:00,
2013-01-26 23:47:00,25.4,21.8,30.38,East,101,0.0,0.0,86,0.00,,,0.00,Wunderground v.1.15,2013-01-27 05:47:00,
2013-01-26 23:53:00,25.7,21.8,30.38,East,79,0.0,0.0,85,0.00,,,0.00,Wunderground v.1.15,2013-01-27 05:53:00,
2013-01-26 23:58:00,25.8,21.6,30.38,ESE,113,0.0,0.0,84,0.00,,,0.00,Wunderground v.1.15,2013-01-27 05:58:00,